X  Luk Metar data     EKRN Bornholm Airport
Temperatur
11°C Temperatur
10°C Duggpunkt
94% Fugtighed



Vind
3 M/S
7 MPT
11 KM/T
6 KNOB



260°
Vest
Nuværende forhold

Overkyet Overkyet
Tryk 993.92 (hPa) - 29.35 (inHg)
Sigt 6.2 (mil) - 10 (km)
Lufthavn
Lufthavnskode EKRN

Lokation: Bornholm Airport
Afstand: 20 (km)

Metar:
EKRN 280550Z AUTO 26006KT 230V310 9999 OVC014/// 11/10 Q0994

Tid: 28-09-2022 07:50 CEST